Time;durP1;ratioP1;P1;durP2;ratioP2;P2;SDS_P1;SDS_P2;PMS_P1;PMS_P2;Temp;Humidity;BMP_temperature;BMP_pressure;BME280_temperature;BME280_humidity;BME280_pressure;Samples;Min_cycle;Max_cycle;Signal;HPM_P1;HPM_P2
2024/03/09 00:00:23;;;;;;;31.57;12.67;;;4.50;99.90;;;;;;5072190;28;20040;-51
2024/03/09 00:02:51;;;;;;;32.50;13.00;;;4.40;99.90;;;;;;5071079;28;20028;-50
2024/03/09 00:05:19;;;;;;;32.73;13.13;;;4.40;99.90;;;;;;5072219;28;20115;-53
2024/03/09 00:07:45;;;;;;;36.00;13.83;;;4.40;99.90;;;;;;5072186;28;20499;-53
2024/03/09 00:10:14;;;;;;;31.00;12.77;;;4.30;99.90;;;;;;5071007;28;20489;-50
2024/03/09 00:12:43;;;;;;;30.83;12.25;;;4.30;99.90;;;;;;5072158;28;20097;-54
2024/03/09 00:15:12;;;;;;;38.20;13.27;;;4.30;99.90;;;;;;5071165;28;20042;-55
2024/03/09 00:17:42;;;;;;;31.90;13.37;;;4.30;99.90;;;;;;5072081;28;20040;-53
2024/03/09 00:20:16;;;;;;;35.83;13.53;;;4.30;99.90;;;;;;5072050;28;20393;-52
2024/03/09 00:22:45;;;;;;;31.30;13.13;;;4.30;99.90;;;;;;5071990;28;20035;-53
2024/03/09 00:25:11;;;;;;;32.65;12.32;;;4.30;99.90;;;;;;5072128;28;20029;-52
2024/03/09 00:27:40;;;;;;;34.53;12.47;;;4.20;99.90;;;;;;5072004;28;20028;-54
2024/03/09 00:30:10;;;;;;;29.95;12.77;;;4.20;99.90;;;;;;5071917;28;20401;-52
2024/03/09 00:32:38;;;;;;;33.33;13.57;;;4.20;99.90;;;;;;5071834;28;20073;-51
2024/03/09 00:35:07;;;;;;;36.30;12.80;;;4.10;99.90;;;;;;5071846;28;20075;-51
2024/03/09 00:37:33;;;;;;;38.10;13.63;;;4.10;99.90;;;;;;5071923;28;20036;-52
2024/03/09 00:39:59;;;;;;;34.97;13.20;;;4.10;99.90;;;;;;5071671;28;20040;-51
2024/03/09 00:42:25;;;;;;;34.00;13.20;;;4.10;99.90;;;;;;5071755;28;20385;-53
2024/03/09 00:44:54;;;;;;;35.10;13.57;;;4.10;99.90;;;;;;5071819;28;20067;-51
2024/03/09 00:47:20;;;;;;;33.85;12.75;;;4.00;99.90;;;;;;5070669;28;20036;-51
2024/03/09 00:49:47;;;;;;;35.53;13.27;;;4.00;99.90;;;;;;5071786;28;20036;-51
2024/03/09 00:52:13;;;;;;;34.57;13.27;;;4.00;99.90;;;;;;5071715;28;20392;-52
2024/03/09 00:54:39;;;;;;;35.80;13.13;;;3.90;99.90;;;;;;5071622;28;20040;-51
2024/03/09 00:57:05;;;;;;;33.40;13.27;;;3.90;99.90;;;;;;5071687;28;20048;-51
2024/03/09 00:59:31;;;;;;;37.30;13.83;;;3.90;99.90;;;;;;5071517;28;20455;-53
2024/03/09 01:02:01;;;;;;;34.63;13.60;;;3.90;99.90;;;;;;5071441;28;20036;-52
2024/03/09 01:04:30;;;;;;;34.00;13.20;;;3.90;99.90;;;;;;5071665;28;20051;-51
2024/03/09 01:06:57;;;;;;;32.87;13.07;;;3.80;99.90;;;;;;5071596;28;20052;-52
2024/03/09 01:09:25;;;;;;;35.53;12.73;;;3.80;99.90;;;;;;5071533;28;20037;-51
2024/03/09 01:11:52;;;;;;;38.20;13.67;;;3.80;99.90;;;;;;5071461;28;20450;-51
2024/03/09 01:14:18;;;;;;;33.77;13.10;;;3.80;99.90;;;;;;5071507;28;20025;-51
2024/03/09 01:16:44;;;;;;;39.90;14.17;;;3.80;99.90;;;;;;5070214;28;20051;-55
2024/03/09 01:19:10;;;;;;;36.83;13.33;;;3.80;99.90;;;;;;5071538;28;20032;-54
2024/03/09 01:21:36;;;;;;;35.03;13.63;;;3.80;99.90;;;;;;5075242;28;20024;-55
2024/03/09 01:24:01;;;;;;;37.50;14.07;;;3.80;99.90;;;;;;5075418;28;20090;-54
2024/03/09 01:26:27;;;;;;;31.97;13.17;;;3.70;99.90;;;;;;5075342;28;20054;-54
2024/03/09 01:28:54;;;;;;;32.37;12.57;;;3.80;99.90;;;;;;5075289;28;20070;-52
2024/03/09 01:31:27;;;;;;;33.33;13.20;;;3.70;99.90;;;;;;5075258;28;20029;-54
2024/03/09 01:33:53;;;;;;;31.43;12.63;;;3.80;99.90;;;;;;5075271;28;20317;-54
2024/03/09 01:36:20;;;;;;;33.27;13.20;;;3.70;99.90;;;;;;5073863;28;20427;-53
2024/03/09 01:38:48;;;;;;;33.73;12.47;;;3.70;99.90;;;;;;5075183;28;20024;-54
2024/03/09 01:41:14;;;;;;;33.07;12.37;;;3.70;99.90;;;;;;5074988;28;20036;-55
2024/03/09 01:43:40;;;;;;;28.03;11.30;;;3.70;99.90;;;;;;5073711;28;20401;-55
2024/03/09 01:46:09;;;;;;;31.57;13.07;;;3.80;99.90;;;;;;5073663;28;20028;-55
2024/03/09 01:48:38;;;;;;;33.60;12.07;;;3.70;99.90;;;;;;5074801;28;20035;-54
2024/03/09 01:51:05;;;;;;;30.70;11.05;;;3.80;99.90;;;;;;5074743;28;20034;-53
2024/03/09 01:53:31;;;;;;;32.20;12.43;;;3.80;99.90;;;;;;5073464;28;20025;-54
2024/03/09 01:55:59;;;;;;;34.53;13.33;;;3.70;99.90;;;;;;5074739;28;20029;-54
2024/03/09 01:58:25;;;;;;;28.40;12.37;;;3.70;99.90;;;;;;5073478;28;20123;-54
2024/03/09 02:00:56;;;;;;;31.63;12.30;;;3.70;99.90;;;;;;5074518;28;20025;-54
2024/03/09 02:03:23;;;;;;;31.80;11.73;;;3.70;99.90;;;;;;5074475;28;20020;-52
2024/03/09 02:05:50;;;;;;;32.00;13.10;;;3.70;99.90;;;;;;5074551;28;20032;-55
2024/03/09 02:08:17;;;;;;;31.73;12.57;;;3.70;99.90;;;;;;5074549;28;20401;-54
2024/03/09 02:10:43;;;;;;;30.80;11.90;;;3.70;99.90;;;;;;5073229;28;20058;-53
2024/03/09 02:13:10;;;;;;;31.47;12.00;;;3.70;99.90;;;;;;5074294;28;20485;-54
2024/03/09 02:15:36;;;;;;;31.13;12.03;;;3.70;99.90;;;;;;5072982;28;20039;-54
2024/03/09 02:18:02;;;;;;;31.17;12.23;;;3.60;99.90;;;;;;5072966;28;20040;-51
2024/03/09 02:20:30;;;;;;;32.23;11.50;;;3.60;99.90;;;;;;5074122;28;20033;-53
2024/03/09 02:22:58;;;;;;;31.83;11.90;;;3.60;99.90;;;;;;5074134;28;20431;-53
2024/03/09 02:25:26;;;;;;;31.10;13.17;;;3.60;99.90;;;;;;5074166;28;20123;-55
2024/03/09 02:27:52;;;;;;;32.37;12.83;;;3.60;99.90;;;;;;5074244;28;20062;-54
2024/03/09 02:30:19;;;;;;;28.63;11.70;;;3.60;99.90;;;;;;5073748;28;20101;-50
2024/03/09 02:32:45;;;;;;;30.60;11.67;;;3.50;99.90;;;;;;5071641;28;20036;-55
2024/03/09 02:35:11;;;;;;;27.00;10.87;;;3.50;99.90;;;;;;5073974;28;20024;-54
2024/03/09 02:37:37;;;;;;;32.53;11.73;;;3.50;99.90;;;;;;5074040;28;20511;-54
2024/03/09 02:40:04;;;;;;;28.77;11.33;;;3.50;99.90;;;;;;5072519;28;20033;-54
2024/03/09 02:42:32;;;;;;;32.33;11.97;;;3.50;99.90;;;;;;5073819;28;20071;-54
2024/03/09 02:44:57;;;;;;;25.93;10.47;;;3.40;99.90;;;;;;5073723;28;20024;-54
2024/03/09 02:47:23;;;;;;;31.57;12.13;;;3.40;99.90;;;;;;5073951;28;20028;-54
2024/03/09 02:49:49;;;;;;;29.90;11.73;;;3.40;99.90;;;;;;5073764;28;20082;-54
2024/03/09 02:52:15;;;;;;;31.73;12.33;;;3.40;99.90;;;;;;5073598;28;20033;-54
2024/03/09 02:54:42;;;;;;;26.60;11.90;;;3.40;99.90;;;;;;5073667;28;20032;-51
2024/03/09 02:57:08;;;;;;;29.10;11.97;;;3.40;99.90;;;;;;5073631;28;20033;-54
2024/03/09 02:59:35;;;;;;;27.27;11.90;;;3.40;99.90;;;;;;5072015;28;20401;-50
2024/03/09 03:02:13;;;;;;;31.03;11.80;;;3.40;99.90;;;;;;5073408;28;20033;-53
2024/03/09 03:04:40;;;;;;;29.00;10.90;;;3.40;99.90;;;;;;5073436;28;20032;-50
2024/03/09 03:07:08;;;;;;;25.97;10.20;;;3.40;99.90;;;;;;5073450;28;20044;-53
2024/03/09 03:09:34;;;;;;;25.95;11.45;;;3.40;99.90;;;;;;5073296;28;20392;-54
2024/03/09 03:12:01;;;;;;;30.20;12.00;;;3.40;99.90;;;;;;5073031;28;20032;-54
2024/03/09 03:14:26;;;;;;;34.03;11.30;;;3.40;99.90;;;;;;5073235;28;20481;-54
2024/03/09 03:16:55;;;;;;;28.93;11.30;;;3.40;99.90;;;;;;5073188;28;20037;-51
2024/03/09 03:19:21;;;;;;;28.45;11.07;;;3.40;99.90;;;;;;5073096;28;20032;-55
2024/03/09 03:21:47;;;;;;;35.20;11.97;;;3.40;99.90;;;;;;5072996;28;20029;-53
2024/03/09 03:24:13;;;;;;;27.80;10.40;;;3.40;99.90;;;;;;5072988;28;20032;-50
2024/03/09 03:26:39;;;;;;;27.03;11.20;;;3.40;99.90;;;;;;5072897;28;20025;-50
2024/03/09 03:29:04;;;;;;;31.93;11.37;;;3.40;99.90;;;;;;5071638;28;20028;-54
2024/03/09 03:31:30;;;;;;;31.70;11.80;;;3.40;99.90;;;;;;5072886;28;20177;-55
2024/03/09 03:33:56;;;;;;;30.93;10.97;;;3.50;99.90;;;;;;5072732;28;20113;-52
2024/03/09 03:36:23;;;;;;;32.37;11.30;;;3.50;99.90;;;;;;5072790;28;20116;-54
2024/03/09 03:38:49;;;;;;;27.00;10.23;;;3.50;99.90;;;;;;5072793;28;20035;-54
2024/03/09 03:41:18;;;;;;;30.37;11.00;;;3.50;99.90;;;;;;5072473;28;20037;-51
2024/03/09 03:43:44;;;;;;;27.97;11.43;;;3.50;99.90;;;;;;5072303;28;20036;-55
2024/03/09 03:46:14;;;;;;;28.00;12.17;;;3.50;99.90;;;;;;5072525;28;20024;-52
2024/03/09 03:48:44;;;;;;;36.53;12.93;;;3.50;99.90;;;;;;5072628;28;20059;-52
2024/03/09 03:51:12;;;;;;;31.50;11.83;;;3.50;99.90;;;;;;5072432;28;20039;-55
2024/03/09 03:53:39;;;;;;;30.60;11.90;;;3.50;99.90;;;;;;5072365;28;20032;-51
2024/03/09 03:56:07;;;;;;;29.50;10.77;;;3.40;99.90;;;;;;5072310;28;20059;-55
2024/03/09 03:58:33;;;;;;;31.37;12.20;;;3.40;99.90;;;;;;5072368;28;20504;-54
2024/03/09 04:00:58;;;;;;;30.33;12.17;;;3.40;99.90;;;;;;5072226;28;20063;-55
2024/03/09 04:03:29;;;;;;;32.10;12.23;;;3.40;99.90;;;;;;5072165;28;20060;-55
2024/03/09 04:05:54;;;;;;;29.97;11.77;;;3.40;99.90;;;;;;5072267;28;20036;-51
2024/03/09 04:08:21;;;;;;;29.53;11.20;;;3.40;99.90;;;;;;5072131;28;20037;-54
2024/03/09 04:10:48;;;;;;;31.57;12.23;;;3.40;99.90;;;;;;5072072;28;20165;-54
2024/03/09 04:13:14;;;;;;;31.90;11.67;;;3.40;99.90;;;;;;5071925;28;20485;-53
2024/03/09 04:15:41;;;;;;;30.90;12.27;;;3.30;99.90;;;;;;5071995;28;20056;-52
2024/03/09 04:18:07;;;;;;;30.83;11.70;;;3.30;99.90;;;;;;5072043;28;20107;-53
2024/03/09 04:20:37;;;;;;;31.00;11.47;;;3.30;99.90;;;;;;5071921;28;20035;-55
2024/03/09 04:23:04;;;;;;;32.67;11.60;;;3.30;99.90;;;;;;5072471;28;20059;-55
2024/03/09 04:25:35;;;;;;;27.43;11.00;;;3.30;99.90;;;;;;5072206;28;20032;-51
2024/03/09 04:28:05;;;;;;;29.27;10.90;;;3.20;99.90;;;;;;5072031;28;20063;-52
2024/03/09 04:30:34;;;;;;;27.17;11.50;;;3.20;99.90;;;;;;5071869;28;20072;-55
2024/03/09 04:33:06;;;;;;;31.90;12.25;;;3.20;99.90;;;;;;5072324;28;20024;-54
2024/03/09 04:35:33;;;;;;;30.80;12.23;;;3.20;99.90;;;;;;5071800;28;20047;-53
2024/03/09 04:38:00;;;;;;;32.03;13.00;;;3.20;99.90;;;;;;5071851;28;20041;-55
2024/03/09 04:40:27;;;;;;;30.67;12.00;;;3.20;99.90;;;;;;5071613;28;20043;-54
2024/03/09 04:42:53;;;;;;;34.20;12.67;;;3.20;99.90;;;;;;5071580;28;20028;-55
2024/03/09 04:45:25;;;;;;;28.47;11.57;;;3.10;99.90;;;;;;5071681;28;20083;-55
2024/03/09 04:47:51;;;;;;;30.43;11.13;;;3.10;99.90;;;;;;5071776;28;20032;-54
2024/03/09 04:50:24;;;;;;;30.10;11.70;;;3.10;99.90;;;;;;5071576;28;20066;-53
2024/03/09 04:52:50;;;;;;;29.33;11.33;;;3.10;99.90;;;;;;5071590;28;20056;-55
2024/03/09 04:55:22;;;;;;;30.47;12.00;;;3.10;99.90;;;;;;5069523;28;20396;-55
2024/03/09 04:57:48;;;;;;;29.77;11.53;;;3.10;99.90;;;;;;5071695;28;20515;-53
2024/03/09 05:00:16;;;;;;;35.20;12.77;;;3.20;99.90;;;;;;5071401;28;20093;-54
2024/03/09 05:02:47;;;;;;;31.73;12.57;;;3.20;99.90;;;;;;5071341;28;20106;-55
2024/03/09 05:05:13;;;;;;;29.77;11.73;;;3.20;99.90;;;;;;5070188;28;20025;-55
2024/03/09 05:07:49;;;;;;;29.83;11.87;;;3.20;99.90;;;;;;5071589;28;20043;-56
2024/03/09 05:10:17;;;;;;;26.33;10.97;;;3.30;99.90;;;;;;5070492;28;20508;-54
2024/03/09 05:12:53;;;;;;;28.03;11.80;;;3.30;99.90;;;;;;5071412;28;20043;-55
2024/03/09 05:15:20;;;;;;;29.30;11.57;;;3.30;99.90;;;;;;5071359;28;20521;-54
2024/03/09 05:17:46;;;;;;;30.27;11.57;;;3.40;99.90;;;;;;5071477;28;20082;-55
2024/03/09 05:20:14;;;;;;;28.07;11.53;;;3.40;99.90;;;;;;5071259;28;20511;-55
2024/03/09 05:22:41;;;;;;;31.30;11.77;;;3.40;99.90;;;;;;5071547;28;20358;-53
2024/03/09 05:25:10;;;;;;;30.10;12.00;;;3.40;99.90;;;;;;5071280;28;20032;-55
2024/03/09 05:27:42;;;;;;;;;;;3.40;99.90;;;;;;5071915;28;20033;-55
2024/03/09 05:30:16;;;;;;;29.53;11.37;;;3.40;99.90;;;;;;5070007;28;19908;-55
2024/03/09 05:32:42;;;;;;;27.13;11.03;;;3.40;99.90;;;;;;5071313;28;20033;-55
2024/03/09 05:35:13;;;;;;;31.20;11.57;;;3.40;99.90;;;;;;5071386;28;20051;-55
2024/03/09 05:37:40;;;;;;;29.73;11.03;;;3.40;99.90;;;;;;5071333;28;20118;-55
2024/03/09 05:40:10;;;;;;;30.67;12.03;;;3.40;99.90;;;;;;5070988;28;20318;-55
2024/03/09 05:42:43;;;;;;;29.87;12.10;;;3.40;99.90;;;;;;5071151;28;20033;-53
2024/03/09 05:45:18;;;;;;;27.10;11.23;;;3.40;99.90;;;;;;5071198;28;20025;-56
2024/03/09 05:47:52;;;;;;;29.67;11.73;;;3.40;99.90;;;;;;5071147;28;20037;-54
2024/03/09 05:50:19;;;;;;;31.20;11.57;;;3.40;99.90;;;;;;5070969;28;20032;-55
2024/03/09 05:52:53;;;;;;;33.20;12.43;;;3.40;99.90;;;;;;5070851;28;20151;-55
2024/03/09 05:55:20;;;;;;;31.73;11.83;;;3.30;99.90;;;;;;5070980;28;20039;-54
2024/03/09 05:57:49;;;;;;;33.30;12.03;;;3.30;99.90;;;;;;5071225;28;20039;-52
2024/03/09 06:00:17;;;;;;;32.25;11.95;;;3.30;99.90;;;;;;5070824;28;20031;-56
2024/03/09 06:02:44;;;;;;;34.23;12.13;;;3.40;99.90;;;;;;5070843;28;20036;-54
2024/03/09 06:05:10;;;;;;;36.10;12.90;;;3.40;99.90;;;;;;5071015;28;20032;-56
2024/03/09 06:07:38;;;;;;;36.07;12.83;;;3.40;99.90;;;;;;5074535;28;20029;-54
2024/03/09 06:10:07;;;;;;;31.37;10.67;;;3.50;99.90;;;;;;5074324;28;20041;-55
2024/03/09 06:12:38;;;;;;;34.70;12.77;;;3.50;99.90;;;;;;5074645;28;20475;-53
2024/03/09 06:15:05;;;;;;;31.07;11.60;;;3.50;99.90;;;;;;5074439;28;20481;-56
2024/03/09 06:17:31;;;;;;;29.77;12.07;;;3.60;99.90;;;;;;5074308;28;20047;-55
2024/03/09 06:20:00;;;;;;;28.97;11.60;;;3.70;99.90;;;;;;5074197;28;20179;-55
2024/03/09 06:22:26;;;;;;;34.08;11.73;;;3.70;99.90;;;;;;5074116;28;20028;-55
2024/03/09 06:24:52;;;;;;;28.43;11.57;;;3.70;99.90;;;;;;5074292;28;20094;-54
2024/03/09 06:27:17;;;;;;;34.43;11.93;;;3.70;99.90;;;;;;5073129;28;20366;-51
2024/03/09 06:29:44;;;;;;;28.93;11.20;;;3.70;99.90;;;;;;5073146;28;20036;-55
2024/03/09 06:32:10;;;;;;;27.70;11.30;;;3.70;99.90;;;;;;5074029;28;20035;-54
2024/03/09 06:34:42;;;;;;;29.43;11.73;;;3.70;99.90;;;;;;5073968;28;20032;-54
2024/03/09 06:37:09;;;;;;;26.60;11.80;;;3.70;99.90;;;;;;5074028;28;20111;-57
2024/03/09 06:39:37;;;;;;;28.20;11.23;;;3.70;99.90;;;;;;5073941;28;20044;-56
2024/03/09 06:42:03;;;;;;;30.90;12.00;;;3.70;99.90;;;;;;5073811;28;20028;-55
2024/03/09 06:44:29;;;;;;;32.87;12.40;;;3.80;99.90;;;;;;5073893;28;20370;-55
2024/03/09 06:46:54;;;;;;;28.53;10.60;;;3.80;99.90;;;;;;5073820;28;20035;-53
2024/03/09 06:49:21;;;;;;;29.20;10.87;;;3.80;99.90;;;;;;5073841;28;20373;-54
2024/03/09 06:51:46;;;;;;;24.40;10.57;;;3.90;99.90;;;;;;5073598;28;20562;-55
2024/03/09 06:54:12;;;;;;;32.53;11.63;;;4.00;99.90;;;;;;5073699;28;20067;-56
2024/03/09 06:56:38;;;;;;;26.40;11.23;;;4.20;99.90;;;;;;5073702;28;20028;-56
2024/03/09 06:59:03;;;;;;;25.67;10.93;;;4.30;99.90;;;;;;5073457;28;20025;-54
2024/03/09 07:01:31;;;;;;;27.77;11.43;;;4.40;99.90;;;;;;5073489;28;20429;-52
2024/03/09 07:04:03;;;;;;;27.60;10.83;;;4.40;99.90;;;;;;5073384;28;20064;-54
2024/03/09 07:06:34;;;;;;;28.07;10.87;;;4.60;99.90;;;;;;5073492;28;20397;-56
2024/03/09 07:09:00;;;;;;;27.80;10.47;;;4.70;99.90;;;;;;5073557;28;20032;-54
2024/03/09 07:11:26;;;;;;;27.07;10.97;;;4.70;99.90;;;;;;5073433;28;20036;-54
2024/03/09 07:13:56;;;;;;;25.60;10.47;;;4.70;99.90;;;;;;5073136;28;20040;-52
2024/03/09 07:16:22;;;;;;;;;;;4.70;99.90;;;;;;5072425;28;20364;-55
2024/03/09 07:18:48;;;;;;;24.93;10.50;;;4.70;99.90;;;;;;5072468;28;19908;-56
2024/03/09 07:21:15;;;;;;;27.17;11.37;;;4.70;99.90;;;;;;5072941;28;20044;-51
2024/03/09 07:23:41;;;;;;;28.90;10.40;;;4.70;99.90;;;;;;5073097;28;20447;-54
2024/03/09 07:26:11;;;;;;;26.53;11.10;;;4.80;99.90;;;;;;5073061;28;20070;-53
2024/03/09 07:28:37;;;;;;;29.53;11.33;;;4.80;99.90;;;;;;5073129;28;20484;-54
2024/03/09 07:31:04;;;;;;;26.77;12.03;;;4.80;99.90;;;;;;5071861;28;20040;-55
2024/03/09 07:33:30;;;;;;;25.90;10.53;;;4.80;99.90;;;;;;5071540;28;20028;-56
2024/03/09 07:35:58;;;;;;;27.40;10.83;;;4.90;99.90;;;;;;5071511;28;20546;-53
2024/03/09 07:38:24;;;;;;;25.40;10.87;;;5.00;99.90;;;;;;5072809;28;20043;-58
2024/03/09 07:40:50;;;;;;;27.77;10.33;;;5.00;99.90;;;;;;5072665;28;20036;-56
2024/03/09 07:43:18;;;;;;;26.53;11.70;;;5.10;99.90;;;;;;5072612;28;20059;-55
2024/03/09 07:45:43;;;;;;;26.50;11.07;;;5.20;99.90;;;;;;5072549;28;20493;-56
2024/03/09 07:48:11;;;;;;;26.83;11.00;;;5.30;99.90;;;;;;5072602;28;20032;-55
2024/03/09 07:50:37;;;;;;;26.57;10.17;;;5.50;99.90;;;;;;5072414;28;20028;-55
2024/03/09 07:53:06;;;;;;;26.20;11.10;;;5.70;99.90;;;;;;5072518;28;20028;-55
2024/03/09 07:55:32;;;;;;;25.45;10.88;;;5.90;99.90;;;;;;5072428;28;20033;-54
2024/03/09 07:57:58;;;;;;;22.27;9.20;;;6.50;99.90;;;;;;5071203;28;20037;-52
2024/03/09 08:00:27;;;;;;;24.03;10.23;;;7.20;99.90;;;;;;5072245;28;20036;-55
2024/03/09 08:02:55;;;;;;;19.65;9.90;;;8.10;99.90;;;;;;5072474;28;20034;-53
2024/03/09 08:05:22;;;;;;;22.53;9.53;;;8.80;99.90;;;;;;5072205;28;20481;-55
2024/03/09 08:07:49;;;;;;;17.77;8.80;;;9.50;99.90;;;;;;5072248;28;20033;-53
2024/03/09 08:10:19;;;;;;;17.37;8.60;;;10.20;99.90;;;;;;5072175;28;20482;-54
2024/03/09 08:12:46;;;;;;;16.67;7.53;;;10.50;99.90;;;;;;5072362;28;20120;-55
2024/03/09 08:15:12;;;;;;;15.40;7.83;;;10.60;99.90;;;;;;5072123;28;20119;-55
2024/03/09 08:17:38;;;;;;;17.93;7.83;;;10.60;99.90;;;;;;5072171;28;20040;-55
2024/03/09 08:20:21;;;;;;;15.07;7.07;;;10.60;99.90;;;;;;5071886;28;20039;-55
2024/03/09 08:22:47;;;;;;;14.07;6.57;;;10.90;99.90;;;;;;5071918;28;20042;-54
2024/03/09 08:25:15;;;;;;;12.07;5.90;;;11.30;99.90;;;;;;5070640;28;20029;-55
2024/03/09 08:27:43;;;;;;;14.20;6.83;;;11.70;99.50;;;;;;5071915;28;20469;-54
2024/03/09 08:30:18;;;;;;;14.50;6.88;;;12.00;99.10;;;;;;5071751;28;20058;-54
2024/03/09 08:32:50;;;;;;;14.55;6.53;;;12.20;99.00;;;;;;5071744;28;20043;-51
2024/03/09 08:35:18;;;;;;;15.40;6.15;;;12.60;98.00;;;;;;5070597;28;20028;-52
2024/03/09 08:37:45;;;;;;;13.20;6.15;;;12.40;97.10;;;;;;5071880;28;20059;-53
2024/03/09 08:40:16;;;;;;;11.73;5.90;;;12.30;97.60;;;;;;5071647;28;20082;-54
2024/03/09 08:42:43;;;;;;;20.20;6.72;;;12.40;98.10;;;;;;5071682;28;20101;-55
2024/03/09 08:45:09;;;;;;;13.45;6.47;;;12.40;97.40;;;;;;5071692;28;20039;-52
2024/03/09 08:47:38;;;;;;;13.57;6.40;;;12.10;97.80;;;;;;5071646;28;20025;-55
2024/03/09 08:50:06;;;;;;;14.68;6.80;;;12.00;98.20;;;;;;5070392;28;20039;-55
2024/03/09 08:52:32;;;;;;;15.20;6.83;;;12.10;97.90;;;;;;5071677;28;20039;-53
2024/03/09 08:54:59;;;;;;;14.60;6.87;;;12.00;98.00;;;;;;5071624;28;20048;-52
2024/03/09 08:57:27;;;;;;;15.87;6.77;;;11.80;97.80;;;;;;5071615;28;20029;-55
2024/03/09 08:59:59;;;;;;;13.37;6.03;;;12.00;98.20;;;;;;5071417;28;20035;-55
2024/03/09 09:02:27;;;;;;;14.53;6.83;;;12.20;98.00;;;;;;5071501;28;20499;-53
2024/03/09 09:04:53;;;;;;;13.27;6.47;;;12.30;97.60;;;;;;5071437;28;20025;-54
2024/03/09 09:07:19;;;;;;;15.57;6.63;;;12.40;97.50;;;;;;5071476;28;20499;-53
2024/03/09 09:09:45;;;;;;;12.37;6.47;;;12.40;97.50;;;;;;5071356;28;20473;-51
2024/03/09 09:12:10;;;;;;;14.60;7.20;;;12.40;97.60;;;;;;5071244;28;20028;-52
2024/03/09 09:14:39;;;;;;;13.67;6.67;;;12.50;97.20;;;;;;5071276;28;20067;-53
2024/03/09 09:17:06;;;;;;;12.75;6.15;;;12.80;96.70;;;;;;5071403;28;20447;-54
2024/03/09 09:19:38;;;;;;;14.67;6.47;;;13.00;96.40;;;;;;5071182;28;20397;-54
2024/03/09 09:22:06;;;;;;;12.33;5.60;;;13.00;95.90;;;;;;5071207;28;20052;-55
2024/03/09 09:24:32;;;;;;;16.17;6.70;;;13.10;95.70;;;;;;5071236;28;20029;-50
2024/03/09 09:26:58;;;;;;;17.10;6.40;;;13.00;95.80;;;;;;5071155;28;20032;-54
2024/03/09 09:29:28;;;;;;;13.87;5.87;;;13.30;95.50;;;;;;5071193;28;20389;-55
2024/03/09 09:31:55;;;;;;;12.82;6.30;;;13.40;95.20;;;;;;5071191;28;20028;-55
2024/03/09 09:34:21;;;;;;;11.05;5.57;;;13.60;95.30;;;;;;5071198;28;20554;-55
2024/03/09 09:36:48;;;;;;;12.35;6.38;;;14.10;95.10;;;;;;5071172;28;20112;-55
2024/03/09 09:39:14;;;;;;;13.43;6.32;;;14.40;94.30;;;;;;5071077;28;20504;-54
2024/03/09 09:41:41;;;;;;;14.30;6.38;;;14.70;93.90;;;;;;5073433;28;20032;-54
2024/03/09 09:44:08;;;;;;;14.85;6.28;;;14.80;93.30;;;;;;5075007;28;20028;-55
2024/03/09 09:46:34;;;;;;;12.63;6.35;;;15.20;92.70;;;;;;5074901;28;20044;-55
2024/03/09 09:49:01;;;;;;;13.80;6.00;;;14.80;92.60;;;;;;5074933;28;20033;-55
2024/03/09 09:51:28;;;;;;;12.80;6.40;;;14.50;93.50;;;;;;5074938;28;20044;-53
2024/03/09 09:53:54;;;;;;;15.15;6.55;;;14.30;93.40;;;;;;5074652;28;20051;-54
2024/03/09 09:56:20;;;;;;;12.20;6.00;;;14.30;93.60;;;;;;5074749;28;20496;-55
2024/03/09 09:58:50;;;;;;;13.45;6.65;;;15.20;92.90;;;;;;5074699;28;20028;-56
2024/03/09 10:01:21;;;;;;;21.17;10.20;;;16.50;91.60;;;;;;5074649;28;20481;-53
2024/03/09 10:03:47;;;;;;;14.52;7.43;;;17.70;88.20;;;;;;5074407;28;20025;-56
2024/03/09 10:06:21;;;;;;;13.35;6.53;;;19.00;84.60;;;;;;5074606;28;20078;-55
2024/03/09 10:08:48;;;;;;;11.88;6.18;;;20.70;77.80;;;;;;5074460;28;20043;-56
2024/03/09 10:11:17;;;;;;;13.00;6.50;;;21.20;73.70;;;;;;5074616;28;20338;-55
2024/03/09 10:13:46;;;;;;;11.82;6.40;;;21.70;70.80;;;;;;5074393;28;20060;-55
2024/03/09 10:16:16;;;;;;;16.70;9.50;;;21.30;70.20;;;;;;5074297;28;20078;-55
2024/03/09 10:18:47;;;;;;;10.77;6.20;;;20.90;71.70;;;;;;5074323;28;20036;-56
2024/03/09 10:21:14;;;;;;;11.00;6.40;;;21.30;68.50;;;;;;5074161;28;20036;-56
2024/03/09 10:23:40;;;;;;;12.32;6.10;;;20.50;68.50;;;;;;5074250;28;20342;-55
2024/03/09 10:26:09;;;;;;;13.05;6.32;;;19.70;70.10;;;;;;5074148;28;20503;-54
2024/03/09 10:28:42;;;;;;;11.48;6.50;;;19.00;72.60;;;;;;5074246;28;20029;-54
2024/03/09 10:31:07;;;;;;;12.93;5.55;;;18.10;73.40;;;;;;5072820;28;20446;-55
2024/03/09 10:33:36;;;;;;;12.10;6.35;;;17.80;74.50;;;;;;5073932;28;20037;-56
2024/03/09 10:36:04;;;;;;;12.15;6.35;;;16.90;76.50;;;;;;5073990;28;20035;-55
2024/03/09 10:38:30;;;;;;;11.67;5.60;;;16.50;78.30;;;;;;5074072;28;20039;-54
2024/03/09 10:41:04;;;;;;;15.52;6.55;;;16.10;79.70;;;;;;5073852;28;20041;-56
2024/03/09 10:43:31;;;;;;;12.75;6.13;;;15.90;80.70;;;;;;5073929;28;20484;-55
2024/03/09 10:45:59;;;;;;;14.23;6.70;;;15.80;81.30;;;;;;5073814;28;20043;-54
2024/03/09 10:48:29;;;;;;;12.32;6.25;;;15.80;82.00;;;;;;5073757;28;20458;-55
2024/03/09 10:51:01;;;;;;;;;;;16.00;81.20;;;;;;5074247;28;20106;-55
2024/03/09 10:53:38;;;;;;;13.48;6.40;;;16.30;81.00;;;;;;5072457;28;20446;-55
2024/03/09 10:56:18;;;;;;;10.82;5.82;;;16.40;81.30;;;;;;5073662;28;20033;-55
2024/03/09 10:58:45;;;;;;;13.48;6.20;;;16.80;80.80;;;;;;5073617;28;20488;-56
2024/03/09 11:01:15;;;;;;;12.50;6.78;;;16.80;79.90;;;;;;5072112;28;20505;-56
2024/03/09 11:03:45;;;;;;;12.05;6.55;;;16.50;80.10;;;;;;5073424;28;20039;-55
2024/03/09 11:06:11;;;;;;;14.07;6.63;;;16.30;80.90;;;;;;5073351;28;20486;-55
2024/03/09 11:08:38;;;;;;;11.82;6.10;;;16.40;82.20;;;;;;5072235;28;20111;-56
2024/03/09 11:11:04;;;;;;;10.65;6.07;;;17.30;79.80;;;;;;5073351;28;20036;-56
2024/03/09 11:13:30;;;;;;;14.13;6.35;;;18.30;78.70;;;;;;5073714;28;20082;-56
2024/03/09 11:15:56;;;;;;;13.52;5.93;;;19.20;76.80;;;;;;5073182;28;20036;-54
2024/03/09 11:18:22;;;;;;;10.95;6.07;;;20.30;73.20;;;;;;5073602;28;20110;-56
2024/03/09 11:20:49;;;;;;;10.95;6.22;;;20.60;72.50;;;;;;5073096;28;20063;-51
2024/03/09 11:23:15;;;;;;;12.45;6.75;;;20.40;72.50;;;;;;5071785;28;20024;-55
2024/03/09 11:25:51;;;;;;;11.90;6.03;;;20.30;71.80;;;;;;5073088;28;20457;-55
2024/03/09 11:28:20;;;;;;;11.70;6.25;;;20.30;71.90;;;;;;5073046;28;20028;-56
2024/03/09 11:31:11;;;;;;;11.90;6.38;;;20.50;70.90;;;;;;5072848;28;20043;-56
2024/03/09 11:33:42;;;;;;;10.77;5.70;;;20.30;71.40;;;;;;5071602;28;20127;-55
2024/03/09 11:36:37;;;;;;;14.02;6.57;;;20.30;71.30;;;;;;5072873;28;20036;-55
2024/03/09 11:39:02;;;;;;;11.43;6.72;;;20.70;69.80;;;;;;5072842;28;20088;-55
2024/03/09 11:41:28;;;;;;;8.60;5.05;;;20.50;70.00;;;;;;5072762;28;20040;-55
2024/03/09 11:43:57;;;;;;;10.98;5.75;;;20.50;70.00;;;;;;5072565;28;20119;-53
2024/03/09 11:46:22;;;;;;;;;;;20.50;69.60;;;;;;5073202;28;20035;-55
2024/03/09 11:48:48;;;;;;;10.88;5.43;;;20.20;70.00;;;;;;5072610;28;19908;-55
2024/03/09 11:51:13;;;;;;;9.68;5.07;;;19.60;71.70;;;;;;5072624;28;20115;-55
2024/03/09 11:53:39;;;;;;;11.35;6.15;;;19.30;73.30;;;;;;5072507;28;20024;-55
2024/03/09 11:56:05;;;;;;;11.95;6.55;;;19.40;72.80;;;;;;5072681;28;20108;-55
2024/03/09 11:58:31;;;;;;;12.07;5.88;;;19.30;73.30;;;;;;5072571;28;20492;-55
2024/03/09 12:00:57;;;;;;;11.63;6.32;;;19.30;72.70;;;;;;5072301;28;20103;-55
2024/03/09 12:03:23;;;;;;;9.43;5.43;;;19.20;73.10;;;;;;5071934;28;20449;-55
2024/03/09 12:05:50;;;;;;;10.13;5.35;;;19.40;72.80;;;;;;5072318;28;20104;-55
2024/03/09 12:08:16;;;;;;;11.18;6.22;;;19.60;73.40;;;;;;5072267;28;20032;-53
2024/03/09 12:10:42;;;;;;;12.68;6.22;;;20.40;70.40;;;;;;5072354;28;20028;-52
2024/03/09 12:13:09;;;;;;;11.35;5.68;;;21.60;70.60;;;;;;5072009;28;20485;-52
2024/03/09 12:15:35;;;;;;;9.65;6.05;;;23.20;66.10;;;;;;5071967;28;20485;-51
2024/03/09 12:18:03;;;;;;;9.98;5.60;;;24.30;63.50;;;;;;5072113;28;20111;-53
2024/03/09 12:20:29;;;;;;;9.70;5.33;;;25.10;61.60;;;;;;5072107;28;20043;-50
2024/03/09 12:22:54;;;;;;;14.70;5.95;;;25.10;60.80;;;;;;5072123;28;20034;-55
2024/03/09 12:25:21;;;;;;;8.68;5.40;;;24.70;60.00;;;;;;5072053;28;20389;-51
2024/03/09 12:27:48;;;;;;;7.95;4.60;;;24.00;62.30;;;;;;5071947;28;20110;-50
2024/03/09 12:30:16;;;;;;;7.18;4.20;;;23.30;64.20;;;;;;5071845;28;20103;-52
2024/03/09 12:32:42;;;;;;;7.55;4.10;;;22.50;63.20;;;;;;5071776;28;20040;-51
2024/03/09 12:35:08;;;;;;;7.53;3.70;;;22.40;64.00;;;;;;5071742;28;20025;-51
2024/03/09 12:37:35;;;;;;;8.05;4.38;;;22.80;62.80;;;;;;5072052;28;20127;-54
2024/03/09 12:40:10;;;;;;;6.05;3.72;;;23.50;62.30;;;;;;5071714;28;20036;-52